createdAt,value
2017-05-04T00:00:43.617Z,81.18
2017-05-04T00:01:43.615Z,81.26
2017-05-04T00:02:43.621Z,80.97
2017-05-04T00:03:43.616Z,80.81
2017-05-04T00:04:43.620Z,80.57
2017-05-04T00:05:43.619Z,80.65
2017-05-04T00:06:43.619Z,80.60
2017-05-04T00:07:43.619Z,80.47
2017-05-04T00:08:43.618Z,80.81
2017-05-04T00:09:43.625Z,80.79
2017-05-04T00:10:43.608Z,80.87
2017-05-04T00:11:43.608Z,80.68
2017-05-04T00:12:43.610Z,80.63
2017-05-04T00:13:43.615Z,80.31
2017-05-04T00:14:43.613Z,80.10
2017-05-04T00:15:43.614Z,80.36
2017-05-04T00:16:43.713Z,80.65
2017-05-04T00:17:43.609Z,80.36
2017-05-04T00:18:43.608Z,80.76
2017-05-04T00:19:43.611Z,81.05
2017-05-04T00:20:43.608Z,80.92
2017-05-04T00:21:43.607Z,81.18
2017-05-04T00:22:43.611Z,80.76
2017-05-04T00:23:43.644Z,80.79
2017-05-04T00:24:43.749Z,80.84
2017-05-04T00:25:43.638Z,80.65
2017-05-04T00:26:43.640Z,80.84
2017-05-04T00:27:43.638Z,81.18
2017-05-04T00:28:43.651Z,81.29
2017-05-04T00:29:43.667Z,81.79
2017-05-04T00:30:43.642Z,81.90
2017-05-04T00:31:43.646Z,81.71
2017-05-04T00:32:43.648Z,82.14
2017-05-04T00:33:43.642Z,82.03
2017-05-04T00:34:43.650Z,82.67
2017-05-04T00:35:43.649Z,82.43
2017-05-04T00:36:43.653Z,82.19
2017-05-04T00:37:43.647Z,82.27
2017-05-04T00:38:43.672Z,82.27
2017-05-04T00:40:43.635Z,83.22
2017-05-04T00:41:43.640Z,83.04
2017-05-04T00:42:43.637Z,82.77
2017-05-04T00:43:43.637Z,82.72
2017-05-04T00:44:43.817Z,82.82
2017-05-04T00:45:43.619Z,82.61
2017-05-04T00:46:43.638Z,82.82
2017-05-04T00:47:43.605Z,82.93
2017-05-04T00:48:43.640Z,82.77
2017-05-04T00:49:43.642Z,82.96
2017-05-04T00:50:43.650Z,82.75
2017-05-04T00:51:43.681Z,82.51
2017-05-04T00:52:43.641Z,82.61
2017-05-04T00:53:43.650Z,82.93
2017-05-04T00:54:43.654Z,83.36
2017-05-04T00:55:43.662Z,83.38
2017-05-04T00:56:43.652Z,83.33
2017-05-04T00:57:43.762Z,83.49
2017-05-04T00:58:43.658Z,83.75
2017-05-04T00:59:43.654Z,83.97
2017-05-04T01:00:43.648Z,84.17
2017-05-04T01:01:43.644Z,84.44
2017-05-04T01:02:43.649Z,84.50
2017-05-04T01:03:43.647Z,84.50
2017-05-04T01:04:43.648Z,84.71
2017-05-04T01:05:43.649Z,84.71
2017-05-04T01:06:43.647Z,84.74
2017-05-04T01:07:43.647Z,84.89
2017-05-04T01:08:43.648Z,84.79
2017-05-04T01:09:43.650Z,84.76
2017-05-04T01:10:43.671Z,84.89
2017-05-04T01:11:43.632Z,84.92
2017-05-04T01:12:43.660Z,84.97
2017-05-04T01:13:43.642Z,84.97
2017-05-04T01:14:43.665Z,85.21
2017-05-04T01:15:43.673Z,85.19
2017-05-04T01:16:43.669Z,85.24
2017-05-04T01:17:43.670Z,85.24
2017-05-04T01:18:43.671Z,85.32
2017-05-04T01:19:43.675Z,85.32
2017-05-04T01:20:43.781Z,85.08
2017-05-04T01:21:43.668Z,85.13
2017-05-04T01:22:43.673Z,84.74
2017-05-04T01:23:43.641Z,85.13
2017-05-04T01:24:43.676Z,85.03
2017-05-04T01:25:43.775Z,85.16
2017-05-04T01:26:43.672Z,85.43
2017-05-04T01:27:43.680Z,85.53
2017-05-04T01:28:43.644Z,85.56
2017-05-04T01:29:43.643Z,85.21
2017-05-04T01:30:43.658Z,85.32
2017-05-04T01:31:43.663Z,85.64
2017-05-04T01:32:43.662Z,85.53
2017-05-04T01:33:43.671Z,85.19
2017-05-04T01:34:43.671Z,85.35
2017-05-04T01:35:43.628Z,85.30
2017-05-04T01:36:43.664Z,85.48
2017-05-04T01:38:43.645Z,85.40
2017-05-04T01:39:43.666Z,85.32
2017-05-04T01:40:43.676Z,85.38
2017-05-04T01:41:43.578Z,85.43
2017-05-04T01:42:43.579Z,85.53
2017-05-04T01:43:43.670Z,85.56
2017-05-04T01:44:43.656Z,85.61
2017-05-04T01:45:43.695Z,85.53
2017-05-04T01:46:43.614Z,85.72
2017-05-04T01:47:43.627Z,85.77
2017-05-04T01:48:43.622Z,85.83
2017-05-04T01:49:43.566Z,85.88
2017-05-04T01:50:43.681Z,85.69
2017-05-04T01:51:43.790Z,85.66
2017-05-04T01:52:43.653Z,85.56
2017-05-04T01:53:43.674Z,85.88
2017-05-04T01:54:43.695Z,86.09
2017-05-04T01:55:43.657Z,86.01
2017-05-04T01:56:43.682Z,85.66
2017-05-04T01:57:43.687Z,85.08
2017-05-04T01:58:43.675Z,85.05
2017-05-04T01:59:43.692Z,84.92
2017-05-04T02:00:43.693Z,84.71
2017-05-04T02:01:43.683Z,84.63
2017-05-04T02:02:43.658Z,84.66
2017-05-04T02:03:43.697Z,84.84
2017-05-04T02:04:43.695Z,85.00
2017-05-04T02:05:43.716Z,85.30
2017-05-04T02:06:43.699Z,85.56
2017-05-04T02:07:43.663Z,85.66
2017-05-04T02:08:43.709Z,85.77
2017-05-04T02:09:43.661Z,85.75
2017-05-04T02:10:43.697Z,85.93
2017-05-04T02:11:43.696Z,86.09
2017-05-04T02:12:43.686Z,86.20
2017-05-04T02:13:43.801Z,86.46
2017-05-04T02:14:43.701Z,86.38
2017-05-04T02:15:43.721Z,86.54
2017-05-04T02:16:43.700Z,86.63
2017-05-04T02:17:43.691Z,86.54
2017-05-04T02:18:43.725Z,86.52
2017-05-04T02:19:43.699Z,86.60
2017-05-04T02:20:43.703Z,86.57
2017-05-04T02:21:43.728Z,86.65
2017-05-04T02:22:43.699Z,86.46
2017-05-04T02:23:43.697Z,86.38
2017-05-04T02:24:43.722Z,86.52
2017-05-04T02:25:43.751Z,86.79
2017-05-04T02:26:43.705Z,86.87
2017-05-04T02:27:43.813Z,86.94
2017-05-04T02:28:43.699Z,86.91
2017-05-04T02:29:43.733Z,87.05
2017-05-04T02:30:43.670Z,87.00
2017-05-04T02:31:43.705Z,86.87
2017-05-04T02:32:43.733Z,86.65
2017-05-04T02:33:43.710Z,86.76
2017-05-04T02:34:43.701Z,86.79
2017-05-04T02:35:43.701Z,86.84
2017-05-04T02:36:43.705Z,86.87
2017-05-04T02:37:43.712Z,87.08
2017-05-04T02:38:43.696Z,87.18
2017-05-04T02:39:43.734Z,87.26
2017-05-04T02:40:43.675Z,87.45
2017-05-04T02:41:43.684Z,87.56
2017-05-04T02:42:43.680Z,87.45
2017-05-04T02:43:43.686Z,87.53
2017-05-04T02:44:43.681Z,87.45
2017-05-04T02:45:43.685Z,87.51
2017-05-04T02:46:43.686Z,87.67
2017-05-04T02:47:43.682Z,87.56
2017-05-04T02:48:43.682Z,87.53
2017-05-04T02:49:43.709Z,87.43
2017-05-04T02:50:43.684Z,87.32
2017-05-04T02:51:43.711Z,87.21
2017-05-04T02:52:43.719Z,87.45
2017-05-04T02:53:43.682Z,87.56
2017-05-04T02:54:43.717Z,87.69
2017-05-04T02:55:43.706Z,87.88
2017-05-04T02:56:43.687Z,88.23
2017-05-04T02:57:43.717Z,87.90
2017-05-04T02:58:43.679Z,88.01
2017-05-04T02:59:43.691Z,88.04
2017-05-04T03:00:43.719Z,87.90
2017-05-04T03:01:43.707Z,87.51
2017-05-04T03:02:43.702Z,87.56
2017-05-04T03:03:43.709Z,87.59
2017-05-04T03:04:43.704Z,87.59
2017-05-04T03:05:43.708Z,87.69
2017-05-04T03:06:43.707Z,88.01
2017-05-04T03:07:43.707Z,87.85
2017-05-04T03:08:43.709Z,87.93
2017-05-04T03:09:43.816Z,87.93
2017-05-04T03:10:43.706Z,88.12
2017-05-04T03:11:43.677Z,88.17
2017-05-04T03:12:43.715Z,87.32
2017-05-04T03:13:43.708Z,87.64
2017-05-04T03:14:43.709Z,87.64
2017-05-04T03:15:43.793Z,87.67
2017-05-04T03:16:43.711Z,87.53
2017-05-04T03:17:43.707Z,87.61
2017-05-04T03:18:43.710Z,87.08
2017-05-04T03:19:43.710Z,87.24
2017-05-04T03:20:43.716Z,87.37
2017-05-04T03:21:43.713Z,86.76
2017-05-04T03:22:43.716Z,86.09
2017-05-04T03:23:43.713Z,85.24
2017-05-04T03:24:43.725Z,85.56
2017-05-04T03:25:43.715Z,85.56
2017-05-04T03:26:43.711Z,85.80
2017-05-04T03:27:43.715Z,86.09
2017-05-04T03:28:43.797Z,86.12
2017-05-04T03:29:43.710Z,85.88
2017-05-04T03:30:43.712Z,85.08
2017-05-04T03:31:43.711Z,85.40
2017-05-04T03:32:43.716Z,85.58
2017-05-04T03:33:43.716Z,85.66
2017-05-04T03:34:43.714Z,85.40
2017-05-04T03:35:43.715Z,85.53
2017-05-04T03:36:43.682Z,85.75
2017-05-04T03:37:43.598Z,85.58
2017-05-04T03:38:43.639Z,85.43
2017-05-04T03:39:43.678Z,85.43
2017-05-04T03:40:43.679Z,85.40
2017-05-04T03:41:43.717Z,85.43
2017-05-04T03:42:43.645Z,85.40
2017-05-04T03:44:43.686Z,85.35
2017-05-04T03:45:43.686Z,85.30
2017-05-04T03:46:43.714Z,85.21
2017-05-04T03:47:43.712Z,85.69
2017-05-04T03:48:43.717Z,85.66
2017-05-04T03:49:43.812Z,85.66
2017-05-04T03:50:43.715Z,85.91
2017-05-04T03:51:43.737Z,85.56
2017-05-04T03:52:43.714Z,85.40
2017-05-04T03:53:43.720Z,85.16
2017-05-04T03:54:43.715Z,85.38
2017-05-04T03:55:43.718Z,85.30
2017-05-04T03:56:43.653Z,84.92
2017-05-04T03:57:43.741Z,84.87
2017-05-04T03:58:43.744Z,84.76
2017-05-04T03:59:43.750Z,84.79
2017-05-04T04:00:43.752Z,84.52
2017-05-04T04:01:43.748Z,85.00
2017-05-04T04:02:43.755Z,85.40
2017-05-04T04:03:43.732Z,84.87
2017-05-04T04:04:43.755Z,84.81
2017-05-04T04:05:43.773Z,84.66
2017-05-04T04:06:43.713Z,84.31
2017-05-04T04:07:43.724Z,84.66
2017-05-04T04:08:43.728Z,84.34
2017-05-04T04:09:43.727Z,84.15
2017-05-04T04:10:43.731Z,84.55
2017-05-04T04:11:43.722Z,84.31
2017-05-04T04:12:43.723Z,84.50
2017-05-04T04:13:43.728Z,84.31
2017-05-04T04:14:43.730Z,84.52
2017-05-04T04:15:43.724Z,84.63
2017-05-04T04:16:43.731Z,83.91
2017-05-04T04:17:43.754Z,84.05
2017-05-04T04:18:43.780Z,83.81
2017-05-04T04:19:43.760Z,84.02
2017-05-04T04:21:43.761Z,84.05
2017-05-04T04:22:43.755Z,84.39
2017-05-04T04:23:43.763Z,84.76
2017-05-04T04:24:43.770Z,84.15
2017-05-04T04:25:43.764Z,84.44
2017-05-04T04:26:43.763Z,84.58
2017-05-04T04:27:43.714Z,85.05
2017-05-04T04:28:43.711Z,85.08
2017-05-04T04:29:43.640Z,85.64
2017-05-04T04:30:43.662Z,85.43
2017-05-04T04:31:43.700Z,85.21
2017-05-04T04:32:43.652Z,85.96
2017-05-04T04:33:43.736Z,86.38
2017-05-04T04:34:43.698Z,86.60
2017-05-04T04:35:43.708Z,87.08
2017-05-04T04:36:43.755Z,87.08
2017-05-04T04:37:43.732Z,87.18
2017-05-04T04:38:43.733Z,88.01
2017-05-04T04:39:43.737Z,87.69
2017-05-04T04:40:43.737Z,88.01
2017-05-04T04:41:43.735Z,88.46
2017-05-04T04:42:43.741Z,88.44
2017-05-04T04:43:43.735Z,87.88
2017-05-04T04:44:43.741Z,87.67
2017-05-04T04:45:43.732Z,87.10
2017-05-04T04:46:43.738Z,86.65
2017-05-04T04:47:43.743Z,86.94
2017-05-04T04:48:43.742Z,86.65
2017-05-04T04:49:43.746Z,86.73
2017-05-04T04:50:43.747Z,86.79
2017-05-04T04:51:43.742Z,86.20
2017-05-04T04:52:43.743Z,86.12
2017-05-04T04:53:43.745Z,86.38
2017-05-04T04:54:43.743Z,86.30
2017-05-04T04:55:43.744Z,85.93
2017-05-04T04:56:43.742Z,85.32
2017-05-04T04:57:43.910Z,85.08
2017-05-04T04:58:43.753Z,85.75
2017-05-04T04:59:43.797Z,85.48
2017-05-04T05:00:43.823Z,85.85
2017-05-04T05:01:43.778Z,85.75
2017-05-04T05:02:43.774Z,85.46
2017-05-04T05:03:43.780Z,85.48
2017-05-04T05:04:43.776Z,85.53
2017-05-04T05:05:43.784Z,85.77
2017-05-04T05:06:43.776Z,85.46
2017-05-04T05:08:43.751Z,85.56
2017-05-04T05:09:43.751Z,85.27
2017-05-04T05:10:43.753Z,84.89
2017-05-04T05:11:43.749Z,85.30
2017-05-04T05:12:43.752Z,85.48
2017-05-04T05:13:43.750Z,85.13
2017-05-04T05:14:43.755Z,84.81
2017-05-04T05:15:43.752Z,84.52
2017-05-04T05:16:43.753Z,85.00
2017-05-04T05:17:43.672Z,84.95
2017-05-04T05:18:43.747Z,84.55
2017-05-04T05:19:43.732Z,84.17
2017-05-04T05:20:43.722Z,84.17
2017-05-04T05:21:43.788Z,84.15
2017-05-04T05:22:43.745Z,83.89
2017-05-04T05:23:43.748Z,84.05
2017-05-04T05:24:43.762Z,83.51
2017-05-04T05:25:43.685Z,84.07
2017-05-04T05:26:43.681Z,84.20
2017-05-04T05:27:43.760Z,84.09
2017-05-04T05:28:43.765Z,83.86
2017-05-04T05:29:43.764Z,84.05
2017-05-04T05:30:43.758Z,83.78
2017-05-04T05:31:43.762Z,83.51
2017-05-04T05:32:43.766Z,83.40
2017-05-04T05:33:43.760Z,83.67
2017-05-04T05:34:43.761Z,83.73
2017-05-04T05:35:43.764Z,83.17
2017-05-04T05:36:43.760Z,82.98
2017-05-04T05:37:43.773Z,82.72
2017-05-04T05:38:43.774Z,82.88
2017-05-04T05:39:43.778Z,82.06
2017-05-04T05:40:43.780Z,81.68
2017-05-04T05:41:43.780Z,82.14
2017-05-04T05:42:43.780Z,81.63
2017-05-04T05:43:43.778Z,81.92
2017-05-04T05:44:43.782Z,81.87
2017-05-04T05:45:43.778Z,81.48
2017-05-04T05:46:43.779Z,80.81
2017-05-04T05:47:43.770Z,81.16
2017-05-04T05:48:43.774Z,79.55
2017-05-04T05:49:43.772Z,79.17
2017-05-04T05:50:43.768Z,79.83
2017-05-04T05:51:44.793Z,79.23
2017-05-04T05:52:43.767Z,78.57
2017-05-04T05:53:43.770Z,78.36
2017-05-04T05:54:43.773Z,79.17
2017-05-04T05:55:43.775Z,78.94
2017-05-04T05:56:43.774Z,78.44
2017-05-04T05:57:43.826Z,78.05
2017-05-04T05:58:43.801Z,78.44
2017-05-04T05:59:43.802Z,77.91
2017-05-04T06:00:43.805Z,77.17
2017-05-04T06:01:43.830Z,77.25
2017-05-04T06:02:43.830Z,78.20
2017-05-04T06:03:43.773Z,77.09
2017-05-04T06:04:43.806Z,77.23
2017-05-04T06:05:43.794Z,77.75
2017-05-04T06:06:43.814Z,77.47
2017-05-04T06:07:43.791Z,78.59
2017-05-04T06:08:43.795Z,77.89
2017-05-04T06:09:43.796Z,77.70
2017-05-04T06:10:43.876Z,78.28
2017-05-04T06:11:43.797Z,78.86
2017-05-04T06:12:43.796Z,78.94
2017-05-04T06:13:43.780Z,78.81
2017-05-04T06:14:43.807Z,78.62
2017-05-04T06:15:43.799Z,79.02
2017-05-04T06:16:43.809Z,77.17
2017-05-04T06:17:43.798Z,78.49
2017-05-04T06:18:43.799Z,78.28
2017-05-04T06:19:43.810Z,77.49
2017-05-04T06:20:43.813Z,78.15
2017-05-04T06:21:43.803Z,78.59
2017-05-04T06:22:43.797Z,76.49
2017-05-04T06:23:43.813Z,76.78
2017-05-04T06:24:43.795Z,77.17
2017-05-04T06:25:43.801Z,78.17
2017-05-04T06:26:43.797Z,76.94
2017-05-04T06:27:43.798Z,76.91
2017-05-04T06:28:43.799Z,75.68
2017-05-04T06:29:43.809Z,77.04
2017-05-04T06:30:43.804Z,77.17
2017-05-04T06:31:43.806Z,77.20
2017-05-04T06:32:43.817Z,76.39
2017-05-04T06:33:43.806Z,76.49
2017-05-04T06:34:43.805Z,77.49
2017-05-04T06:35:43.811Z,75.89
2017-05-04T06:36:43.806Z,76.41
2017-05-04T06:37:43.808Z,75.78
2017-05-04T06:38:43.807Z,75.62
2017-05-04T06:39:43.807Z,75.62
2017-05-04T06:40:43.807Z,75.15
2017-05-04T06:41:43.812Z,75.55
2017-05-04T06:42:43.808Z,76.26
2017-05-04T06:43:43.812Z,76.15
2017-05-04T06:44:43.806Z,76.86
2017-05-04T06:45:43.816Z,76.99
2017-05-04T06:46:43.816Z,77.89
2017-05-04T06:47:43.812Z,77.70
2017-05-04T06:48:43.798Z,77.94
2017-05-04T06:49:43.796Z,76.10
2017-05-04T06:50:43.804Z,76.36
2017-05-04T06:51:43.802Z,76.28
2017-05-04T06:52:43.806Z,77.41
2017-05-04T06:53:43.803Z,77.28
2017-05-04T06:54:43.803Z,78.17
2017-05-04T06:55:43.805Z,77.17
2017-05-04T06:56:43.812Z,76.78
2017-05-04T06:57:43.806Z,78.25
2017-05-04T06:58:43.793Z,77.09
2017-05-04T06:59:43.836Z,76.70
2017-05-04T07:00:43.735Z,75.78
2017-05-04T07:01:43.737Z,76.18
2017-05-04T07:02:43.735Z,76.12
2017-05-04T07:03:43.799Z,76.70
2017-05-04T07:04:43.735Z,76.97
2017-05-04T07:05:43.793Z,75.65
2017-05-04T07:06:43.725Z,77.09
2017-05-04T07:07:43.781Z,77.23
2017-05-04T07:08:43.843Z,76.99
2017-05-04T07:09:43.820Z,76.39
2017-05-04T07:10:43.823Z,75.18
2017-05-04T07:11:43.819Z,76.04
2017-05-04T07:12:43.825Z,76.70
2017-05-04T07:13:43.823Z,76.18
2017-05-04T07:14:43.904Z,76.91
2017-05-04T07:15:43.824Z,77.36
2017-05-04T07:16:43.825Z,76.18
2017-05-04T07:17:43.860Z,77.70
2017-05-04T07:18:43.952Z,76.31
2017-05-04T07:19:43.846Z,75.55
2017-05-04T07:20:43.947Z,76.26
2017-05-04T07:21:43.847Z,77.44
2017-05-04T07:22:43.845Z,75.13
2017-05-04T07:23:44.051Z,74.73
2017-05-04T07:24:43.822Z,74.58
2017-05-04T07:25:43.852Z,73.58
2017-05-04T07:26:43.853Z,73.93
2017-05-04T07:27:43.843Z,74.44
2017-05-04T07:28:43.874Z,75.07
2017-05-04T07:29:43.828Z,74.60
2017-05-04T07:30:43.813Z,75.37
2017-05-04T07:31:43.832Z,74.89
2017-05-04T07:32:43.849Z,75.49
2017-05-04T07:33:43.858Z,75.10
2017-05-04T07:34:43.850Z,75.34
2017-05-04T07:35:43.855Z,76.31
2017-05-04T07:36:43.876Z,76.10
2017-05-04T07:38:43.839Z,76.67
2017-05-04T07:39:43.845Z,77.33
2017-05-04T07:40:43.838Z,76.39
2017-05-04T07:41:43.840Z,76.54
2017-05-04T07:42:43.841Z,77.28
2017-05-04T07:43:43.841Z,76.70
2017-05-04T07:44:43.842Z,76.99
2017-05-04T07:45:43.839Z,77.54
2017-05-04T07:46:43.842Z,77.17
2017-05-04T07:47:43.845Z,76.10
2017-05-04T07:48:43.863Z,75.15
2017-05-04T07:49:43.856Z,77.12
2017-05-04T07:50:43.866Z,75.57
2017-05-04T07:51:43.861Z,77.49
2017-05-04T07:52:43.859Z,76.62
2017-05-04T07:53:43.859Z,75.78
2017-05-04T07:54:43.872Z,75.81
2017-05-04T07:55:43.889Z,76.60
2017-05-04T07:56:43.864Z,76.46
2017-05-04T07:57:43.865Z,76.04
2017-05-04T07:58:43.834Z,74.87
2017-05-04T07:59:43.832Z,75.18
2017-05-04T08:00:43.836Z,76.60
2017-05-04T08:01:43.837Z,77.15
2017-05-04T08:02:43.836Z,77.86
2017-05-04T08:03:43.836Z,75.89
2017-05-04T08:04:43.838Z,77.04
2017-05-04T08:05:43.838Z,75.29
2017-05-04T08:06:43.841Z,74.87
2017-05-04T08:07:43.782Z,74.94
2017-05-04T08:08:43.893Z,74.97
2017-05-04T08:09:43.878Z,75.44
2017-05-04T08:10:43.867Z,74.66
2017-05-04T08:11:43.865Z,76.07
2017-05-04T08:12:43.876Z,74.97
2017-05-04T08:13:43.832Z,76.26
2017-05-04T08:14:43.883Z,76.07
2017-05-04T08:15:43.869Z,74.63
2017-05-04T08:16:43.880Z,73.93
2017-05-04T08:17:43.844Z,72.83
2017-05-04T08:18:43.860Z,72.83
2017-05-04T08:19:43.855Z,73.97
2017-05-04T08:20:44.072Z,74.40
2017-05-04T08:21:43.859Z,72.95
2017-05-04T08:22:43.861Z,73.58
2017-05-04T08:23:43.857Z,73.40
2017-05-04T08:24:43.861Z,74.34
2017-05-04T08:25:43.937Z,75.23
2017-05-04T08:26:43.861Z,74.34
2017-05-04T08:27:43.861Z,74.16
2017-05-04T08:28:43.854Z,74.24
2017-05-04T08:29:43.855Z,74.47
2017-05-04T08:30:43.861Z,73.77
2017-05-04T08:31:43.864Z,74.36
2017-05-04T08:32:43.862Z,74.32
2017-05-04T08:33:43.866Z,74.79
2017-05-04T08:34:43.862Z,75.44
2017-05-04T08:35:43.878Z,74.36
2017-05-04T08:36:43.788Z,76.12
2017-05-04T08:37:43.828Z,73.93
2017-05-04T08:38:43.787Z,73.97
2017-05-04T08:39:43.786Z,74.29
2017-05-04T08:40:43.833Z,76.02
2017-05-04T08:41:43.786Z,74.66
2017-05-04T08:42:43.787Z,74.81
2017-05-04T08:43:43.882Z,74.32
2017-05-04T08:44:43.832Z,75.05
2017-05-04T08:45:43.789Z,75.29
2017-05-04T08:46:43.870Z,74.84
2017-05-04T08:47:43.873Z,75.68
2017-05-04T08:48:43.876Z,74.58
2017-05-04T08:49:43.872Z,74.63
2017-05-04T08:50:43.875Z,74.89
2017-05-04T08:51:43.873Z,74.52
2017-05-04T08:52:43.877Z,73.93
2017-05-04T08:53:43.873Z,73.24
2017-05-04T08:54:43.878Z,73.77
2017-05-04T08:55:43.877Z,75.21
2017-05-04T08:56:43.895Z,74.52
2017-05-04T08:57:43.999Z,74.63
2017-05-04T08:58:43.893Z,73.45
2017-05-04T08:59:43.855Z,73.55
2017-05-04T09:00:43.897Z,72.25
2017-05-04T09:01:43.891Z,72.80
2017-05-04T09:02:43.856Z,75.18
2017-05-04T09:03:43.900Z,71.52
2017-05-04T09:04:43.898Z,71.39
2017-05-04T09:05:43.897Z,71.57
2017-05-04T09:06:43.896Z,72.77
2017-05-04T09:07:43.904Z,72.67
2017-05-04T09:08:43.896Z,70.92
2017-05-04T09:10:43.897Z,73.27
2017-05-04T09:11:43.901Z,70.50
2017-05-04T09:12:43.904Z,71.28
2017-05-04T09:13:43.902Z,72.75
2017-05-04T09:14:43.908Z,71.47
2017-05-04T09:15:43.864Z,72.83
2017-05-04T09:16:43.887Z,73.08
2017-05-04T09:17:43.888Z,71.10
2017-05-04T09:18:43.878Z,73.22
2017-05-04T09:19:43.891Z,71.65
2017-05-04T09:20:43.893Z,73.63
2017-05-04T09:21:43.899Z,72.30
2017-05-04T09:22:43.889Z,72.48
2017-05-04T09:23:43.894Z,72.90
2017-05-04T09:24:43.892Z,72.56
2017-05-04T09:25:43.892Z,74.08
2017-05-04T09:26:43.893Z,74.71
2017-05-04T09:27:43.895Z,73.19
2017-05-04T09:28:43.893Z,74.58
2017-05-04T09:29:43.895Z,73.63
2017-05-04T09:30:43.896Z,73.27
2017-05-04T09:31:43.895Z,69.72
2017-05-04T09:32:43.895Z,72.36
2017-05-04T09:33:43.897Z,71.13
2017-05-04T09:34:43.897Z,70.24
2017-05-04T09:35:43.895Z,70.95
2017-05-04T09:36:43.911Z,71.65
2017-05-04T09:37:43.941Z,73.30
2017-05-04T09:38:44.018Z,71.05
2017-05-04T09:39:43.937Z,70.04
2017-05-04T09:40:43.879Z,69.80
2017-05-04T09:41:44.117Z,70.56
2017-05-04T09:42:43.916Z,71.47
2017-05-04T09:43:43.919Z,70.19
2017-05-04T09:44:43.901Z,71.44
2017-05-04T09:45:43.942Z,71.31
2017-05-04T09:46:43.805Z,69.98
2017-05-04T09:47:43.895Z,69.54
2017-05-04T09:48:43.804Z,71.54
2017-05-04T09:49:43.809Z,72.85
2017-05-04T09:50:43.909Z,72.80
2017-05-04T09:51:43.816Z,74.26
2017-05-04T09:52:43.907Z,71.34
2017-05-04T09:53:43.824Z,71.62
2017-05-04T09:54:43.905Z,70.50
2017-05-04T09:55:43.877Z,71.31
2017-05-04T09:56:43.913Z,72.25
2017-05-04T09:57:43.930Z,71.62
2017-05-04T09:58:43.907Z,71.78
2017-05-04T09:59:44.120Z,72.01
2017-05-04T10:00:44.011Z,71.94
2017-05-04T10:01:43.908Z,71.86
2017-05-04T10:02:43.922Z,72.59
2017-05-04T10:03:43.914Z,71.00
2017-05-04T10:04:43.918Z,72.53
2017-05-04T10:05:43.910Z,72.20
2017-05-04T10:06:44.028Z,71.86
2017-05-04T10:07:43.933Z,71.75
2017-05-04T10:08:43.929Z,71.10
2017-05-04T10:09:43.913Z,72.41
2017-05-04T10:10:43.927Z,73.16
2017-05-04T10:11:43.911Z,72.64
2017-05-04T10:12:43.931Z,72.20
2017-05-04T10:13:43.925Z,72.04
2017-05-04T10:14:43.935Z,72.17
2017-05-04T10:15:43.928Z,71.99
2017-05-04T10:16:43.929Z,72.48
2017-05-04T10:17:43.928Z,72.30
2017-05-04T10:18:43.932Z,71.83
2017-05-04T10:19:43.937Z,72.95
2017-05-04T10:20:43.940Z,72.41
2017-05-04T10:21:43.932Z,73.30
2017-05-04T10:22:43.937Z,71.67
2017-05-04T10:23:43.935Z,71.18
2017-05-04T10:24:43.943Z,70.92
2017-05-04T10:25:43.937Z,71.07
2017-05-04T10:26:43.949Z,72.67
2017-05-04T10:27:43.931Z,73.24
2017-05-04T10:28:43.941Z,73.14
2017-05-04T10:29:43.904Z,72.07
2017-05-04T10:30:43.939Z,72.01
2017-05-04T10:31:43.944Z,71.23
2017-05-04T10:32:43.965Z,71.03
2017-05-04T10:33:43.940Z,72.80
2017-05-04T10:34:43.941Z,72.56
2017-05-04T10:35:43.939Z,72.01
2017-05-04T10:36:43.928Z,71.81
2017-05-04T10:37:43.931Z,72.22
2017-05-04T10:38:43.927Z,70.50
2017-05-04T10:39:43.927Z,72.43
2017-05-04T10:40:43.933Z,73.55
2017-05-04T10:41:43.911Z,72.80
2017-05-04T10:42:43.931Z,73.61
2017-05-04T10:43:44.013Z,73.82
2017-05-04T10:44:44.035Z,71.73
2017-05-04T10:45:43.930Z,72.30
2017-05-04T10:46:43.974Z,72.95
2017-05-04T10:47:43.951Z,72.36
2017-05-04T10:48:43.907Z,71.13
2017-05-04T10:49:43.949Z,71.13
2017-05-04T10:50:43.973Z,70.74
2017-05-04T10:51:43.952Z,72.04
2017-05-04T10:52:43.926Z,72.20
2017-05-04T10:53:43.948Z,73.89
2017-05-04T10:54:43.929Z,73.37
2017-05-04T10:55:43.980Z,74.32
2017-05-04T10:56:43.954Z,73.37
2017-05-04T10:57:43.951Z,74.58
2017-05-04T10:58:43.958Z,74.73
2017-05-04T10:59:43.951Z,72.77
2017-05-04T11:00:44.001Z,72.95
2017-05-04T11:01:44.060Z,74.36
2017-05-04T11:02:43.913Z,75.29
2017-05-04T11:03:43.953Z,74.44
2017-05-04T11:04:43.951Z,74.92
2017-05-04T11:05:43.979Z,75.37
2017-05-04T11:06:43.957Z,75.23
2017-05-04T11:07:43.940Z,76.04
2017-05-04T11:08:43.936Z,76.62
2017-05-04T11:09:43.958Z,76.23
2017-05-04T11:10:43.935Z,76.12
2017-05-04T11:11:43.941Z,76.39
2017-05-04T11:12:43.942Z,75.60
2017-05-04T11:13:43.943Z,76.02
2017-05-04T11:14:44.017Z,76.46
2017-05-04T11:15:43.941Z,76.15
2017-05-04T11:16:44.056Z,76.36
2017-05-04T11:17:43.929Z,76.73
2017-05-04T11:18:43.934Z,77.02
2017-05-04T11:19:43.927Z,76.67
2017-05-04T11:20:43.937Z,76.54
2017-05-04T11:21:43.935Z,75.81
2017-05-04T11:22:44.035Z,76.23
2017-05-04T11:23:43.933Z,75.41
2017-05-04T11:24:43.940Z,76.31
2017-05-04T11:25:43.938Z,75.89
2017-05-04T11:26:43.941Z,76.07
2017-05-04T11:27:43.967Z,75.52
2017-05-04T11:28:43.965Z,75.68
2017-05-04T11:29:43.971Z,76.07
2017-05-04T11:30:43.970Z,75.76
2017-05-04T11:31:44.077Z,75.70
2017-05-04T11:32:43.933Z,75.52
2017-05-04T11:33:43.970Z,75.47
2017-05-04T11:34:43.973Z,76.54
2017-05-04T11:35:43.976Z,76.12
2017-05-04T11:36:43.992Z,76.28
2017-05-04T11:37:43.971Z,76.86
2017-05-04T11:38:43.971Z,75.07
2017-05-04T11:39:43.971Z,74.92
2017-05-04T11:40:44.069Z,76.60
2017-05-04T11:41:43.996Z,75.70
2017-05-04T11:42:43.934Z,74.71
2017-05-04T11:43:43.973Z,74.76
2017-05-04T11:44:43.982Z,74.68
2017-05-04T11:45:43.998Z,74.34
2017-05-04T11:46:43.937Z,75.23
2017-05-04T11:47:43.977Z,75.13
2017-05-04T11:48:43.981Z,74.84
2017-05-04T11:49:43.980Z,74.55
2017-05-04T11:50:43.958Z,73.85
2017-05-04T11:51:43.956Z,75.60
2017-05-04T11:52:43.983Z,75.55
2017-05-04T11:53:43.981Z,75.76
2017-05-04T11:54:43.978Z,75.96
2017-05-04T11:55:43.979Z,76.44
2017-05-04T11:56:44.001Z,74.03
2017-05-04T11:57:43.986Z,75.76
2017-05-04T11:58:43.976Z,74.92
2017-05-04T11:59:43.948Z,74.76
2017-05-04T12:00:43.992Z,75.26
2017-05-04T12:01:43.979Z,75.76
2017-05-04T12:02:43.983Z,76.23
2017-05-04T12:03:43.981Z,76.60
2017-05-04T12:04:43.979Z,77.31
2017-05-04T12:05:44.010Z,76.73
2017-05-04T12:06:43.984Z,75.10
2017-05-04T12:07:43.965Z,76.65
2017-05-04T12:08:43.961Z,76.83
2017-05-04T12:09:43.957Z,76.12
2017-05-04T12:10:43.956Z,77.36
2017-05-04T12:11:43.962Z,77.31
2017-05-04T12:12:43.958Z,77.20
2017-05-04T12:13:43.960Z,77.94
2017-05-04T12:14:43.963Z,77.67
2017-05-04T12:15:43.959Z,78.99
2017-05-04T12:16:43.961Z,77.75
2017-05-04T12:17:44.095Z,77.97
2017-05-04T12:18:43.953Z,78.67
2017-05-04T12:19:43.971Z,79.31
2017-05-04T12:20:43.976Z,78.33
2017-05-04T12:21:43.955Z,78.81
2017-05-04T12:22:43.992Z,78.59
2017-05-04T12:23:43.995Z,78.67
2017-05-04T12:24:44.067Z,78.86
2017-05-04T12:25:43.994Z,80.10
2017-05-04T12:26:43.997Z,79.83
2017-05-04T12:27:43.985Z,79.63
2017-05-04T12:28:43.980Z,79.13
2017-05-04T12:29:43.987Z,80.55
2017-05-04T12:30:44.017Z,80.07
2017-05-04T12:31:43.985Z,81.13
2017-05-04T12:32:43.983Z,81.05
2017-05-04T12:33:43.985Z,81.00
2017-05-04T12:34:43.986Z,81.29
2017-05-04T12:35:43.998Z,80.79
2017-05-04T12:36:43.980Z,81.05
2017-05-04T12:37:44.001Z,81.34
2017-05-04T12:38:44.002Z,81.34
2017-05-04T12:39:44.003Z,82.21
2017-05-04T12:40:43.964Z,81.68
2017-05-04T12:41:44.029Z,81.58
2017-05-04T12:42:44.005Z,81.76
2017-05-04T12:43:44.009Z,81.34
2017-05-04T12:44:44.011Z,80.49
2017-05-04T12:45:44.005Z,81.21
2017-05-04T12:46:44.011Z,81.87
2017-05-04T12:47:44.009Z,81.18
2017-05-04T12:48:44.004Z,80.52
2017-05-04T12:49:43.993Z,80.71
2017-05-04T12:50:43.973Z,81.34
2017-05-04T12:51:44.020Z,81.42
2017-05-04T12:52:43.970Z,80.21
2017-05-04T12:53:43.992Z,81.76
2017-05-04T12:54:44.017Z,81.34
2017-05-04T12:55:44.008Z,80.52
2017-05-04T12:56:44.005Z,80.65
2017-05-04T12:57:43.990Z,80.47
2017-05-04T12:58:44.120Z,80.33
2017-05-04T12:59:44.023Z,79.75